Terminal Aerodrome Forecast
Issued by NWS

Home | Current Version | Previous Version | Text Only | Print | Product List | Glossary Off
Versions: 1 2 3 4 5 6 7 8 9 10 11 12

000
FTUS43 KGRB 212320
TAFAUW
TAF
KAUW 212320Z 2200/2224 35010G17KT P6SM SCT050
     FM220100 02006KT P6SM SKC
     FM221000 07004KT P6SM SCT250
     FM221600 15007KT P6SM BKN140=

USA.gov is the U.S. government's official web portal to all federal, state and local government web resources and services.